sensor_id;sensor_type;location;lat;lon;timestamp;P1;durP1;ratioP1;P2;durP2;ratioP2
29002;SDS011;16102;57.138;-2.118;2023-03-13T00:01:13;5.00;;;3.30;;
29002;SDS011;16102;57.138;-2.118;2023-03-13T00:03:50;3.80;;;2.70;;
29002;SDS011;16102;57.138;-2.118;2023-03-13T00:06:18;6.43;;;3.58;;
29002;SDS011;16102;57.138;-2.118;2023-03-13T00:08:45;3.58;;;2.97;;
29002;SDS011;16102;57.138;-2.118;2023-03-13T00:11:12;3.95;;;3.08;;
29002;SDS011;16102;57.138;-2.118;2023-03-13T00:13:41;4.88;;;3.13;;
29002;SDS011;16102;57.138;-2.118;2023-03-13T00:16:09;5.18;;;3.75;;
29002;SDS011;16102;57.138;-2.118;2023-03-13T00:18:38;4.32;;;3.28;;
29002;SDS011;16102;57.138;-2.118;2023-03-13T00:21:10;4.10;;;3.53;;
29002;SDS011;16102;57.138;-2.118;2023-03-13T00:23:37;4.07;;;3.10;;
29002;SDS011;16102;57.138;-2.118;2023-03-13T00:26:06;5.03;;;3.30;;
29002;SDS011;16102;57.138;-2.118;2023-03-13T00:28:35;5.20;;;3.50;;
29002;SDS011;16102;57.138;-2.118;2023-03-13T00:33:34;4.38;;;3.38;;
29002;SDS011;16102;57.138;-2.118;2023-03-13T00:36:03;5.57;;;4.05;;
29002;SDS011;16102;57.138;-2.118;2023-03-13T00:38:34;7.43;;;4.38;;
29002;SDS011;16102;57.138;-2.118;2023-03-13T00:41:02;4.82;;;3.53;;
29002;SDS011;16102;57.138;-2.118;2023-03-13T00:43:31;4.97;;;3.65;;
29002;SDS011;16102;57.138;-2.118;2023-03-13T00:45:59;5.38;;;3.83;;
29002;SDS011;16102;57.138;-2.118;2023-03-13T00:48:27;7.18;;;4.07;;
29002;SDS011;16102;57.138;-2.118;2023-03-13T00:50:54;6.32;;;3.97;;
29002;SDS011;16102;57.138;-2.118;2023-03-13T00:53:21;5.72;;;4.03;;
29002;SDS011;16102;57.138;-2.118;2023-03-13T00:55:53;6.85;;;3.88;;
29002;SDS011;16102;57.138;-2.118;2023-03-13T00:58:25;5.15;;;4.13;;
29002;SDS011;16102;57.138;-2.118;2023-03-13T01:00:53;7.65;;;4.10;;
29002;SDS011;16102;57.138;-2.118;2023-03-13T01:03:21;4.22;;;3.80;;
29002;SDS011;16102;57.138;-2.118;2023-03-13T01:05:56;7.88;;;4.13;;
29002;SDS011;16102;57.138;-2.118;2023-03-13T01:08:24;4.47;;;4.05;;
29002;SDS011;16102;57.138;-2.118;2023-03-13T01:11:08;5.97;;;4.43;;
29002;SDS011;16102;57.138;-2.118;2023-03-13T01:13:37;7.40;;;4.15;;
29002;SDS011;16102;57.138;-2.118;2023-03-13T01:16:15;5.80;;;3.65;;
29002;SDS011;16102;57.138;-2.118;2023-03-13T01:18:46;6.90;;;3.38;;
29002;SDS011;16102;57.138;-2.118;2023-03-13T01:21:14;5.53;;;3.85;;
29002;SDS011;16102;57.138;-2.118;2023-03-13T01:23:41;5.85;;;3.70;;
29002;SDS011;16102;57.138;-2.118;2023-03-13T01:26:10;4.50;;;3.70;;
29002;SDS011;16102;57.138;-2.118;2023-03-13T01:28:37;6.15;;;3.90;;
29002;SDS011;16102;57.138;-2.118;2023-03-13T01:31:12;5.95;;;3.78;;
29002;SDS011;16102;57.138;-2.118;2023-03-13T01:33:40;4.80;;;3.58;;
29002;SDS011;16102;57.138;-2.118;2023-03-13T01:36:07;5.15;;;3.63;;
29002;SDS011;16102;57.138;-2.118;2023-03-13T01:38:35;5.60;;;3.13;;
29002;SDS011;16102;57.138;-2.118;2023-03-13T01:41:03;5.43;;;3.67;;
29002;SDS011;16102;57.138;-2.118;2023-03-13T01:43:33;5.35;;;3.45;;
29002;SDS011;16102;57.138;-2.118;2023-03-13T01:48:49;4.53;;;3.30;;
29002;SDS011;16102;57.138;-2.118;2023-03-13T01:51:37;4.50;;;3.22;;
29002;SDS011;16102;57.138;-2.118;2023-03-13T01:59:39;6.60;;;3.50;;
29002;SDS011;16102;57.138;-2.118;2023-03-13T02:02:11;9.05;;;4.43;;
29002;SDS011;16102;57.138;-2.118;2023-03-13T02:04:42;8.57;;;4.10;;
29002;SDS011;16102;57.138;-2.118;2023-03-13T02:07:14;9.02;;;5.90;;
29002;SDS011;16102;57.138;-2.118;2023-03-13T02:09:46;9.00;;;4.95;;
29002;SDS011;16102;57.138;-2.118;2023-03-13T02:12:18;7.18;;;4.78;;
29002;SDS011;16102;57.138;-2.118;2023-03-13T02:14:59;10.63;;;5.72;;
29002;SDS011;16102;57.138;-2.118;2023-03-13T02:17:41;8.35;;;5.18;;
29002;SDS011;16102;57.138;-2.118;2023-03-13T02:20:11;4.70;;;3.65;;
29002;SDS011;16102;57.138;-2.118;2023-03-13T02:22:48;4.93;;;3.38;;
29002;SDS011;16102;57.138;-2.118;2023-03-13T02:25:47;4.43;;;2.55;;
29002;SDS011;16102;57.138;-2.118;2023-03-13T02:28:20;4.28;;;3.20;;
29002;SDS011;16102;57.138;-2.118;2023-03-13T02:31:09;3.25;;;2.53;;
29002;SDS011;16102;57.138;-2.118;2023-03-13T02:33:40;3.67;;;3.20;;
29002;SDS011;16102;57.138;-2.118;2023-03-13T02:36:10;3.08;;;2.45;;
29002;SDS011;16102;57.138;-2.118;2023-03-13T02:38:41;3.00;;;2.47;;
29002;SDS011;16102;57.138;-2.118;2023-03-13T02:41:19;2.67;;;2.05;;
29002;SDS011;16102;57.138;-2.118;2023-03-13T02:43:48;2.70;;;2.25;;
29002;SDS011;16102;57.138;-2.118;2023-03-13T02:46:16;3.05;;;2.22;;
29002;SDS011;16102;57.138;-2.118;2023-03-13T02:48:46;2.70;;;2.17;;
29002;SDS011;16102;57.138;-2.118;2023-03-13T02:53:51;2.42;;;2.15;;
29002;SDS011;16102;57.138;-2.118;2023-03-13T02:56:22;2.88;;;2.47;;
29002;SDS011;16102;57.138;-2.118;2023-03-13T02:58:51;8.00;;;5.60;;
29002;SDS011;16102;57.138;-2.118;2023-03-13T03:01:18;6.22;;;4.80;;
29002;SDS011;16102;57.138;-2.118;2023-03-13T03:03:45;3.28;;;2.97;;
29002;SDS011;16102;57.138;-2.118;2023-03-13T03:06:12;4.43;;;3.20;;
29002;SDS011;16102;57.138;-2.118;2023-03-13T03:08:40;3.42;;;3.13;;
29002;SDS011;16102;57.138;-2.118;2023-03-13T03:11:09;4.05;;;3.42;;
29002;SDS011;16102;57.138;-2.118;2023-03-13T03:13:36;3.05;;;2.50;;
29002;SDS011;16102;57.138;-2.118;2023-03-13T03:16:10;4.93;;;3.42;;
29002;SDS011;16102;57.138;-2.118;2023-03-13T03:18:40;4.25;;;3.47;;
29002;SDS011;16102;57.138;-2.118;2023-03-13T03:21:07;4.55;;;3.05;;
29002;SDS011;16102;57.138;-2.118;2023-03-13T03:23:34;2.30;;;2.10;;
29002;SDS011;16102;57.138;-2.118;2023-03-13T03:26:03;2.15;;;1.95;;
29002;SDS011;16102;57.138;-2.118;2023-03-13T03:28:31;2.42;;;1.85;;
29002;SDS011;16102;57.138;-2.118;2023-03-13T03:31:08;2.05;;;1.73;;
29002;SDS011;16102;57.138;-2.118;2023-03-13T03:33:37;2.13;;;1.90;;
29002;SDS011;16102;57.138;-2.118;2023-03-13T03:36:06;2.03;;;1.80;;
29002;SDS011;16102;57.138;-2.118;2023-03-13T03:38:35;2.88;;;1.90;;
29002;SDS011;16102;57.138;-2.118;2023-03-13T03:41:02;2.75;;;1.70;;
29002;SDS011;16102;57.138;-2.118;2023-03-13T03:43:30;1.70;;;1.40;;
29002;SDS011;16102;57.138;-2.118;2023-03-13T03:45:57;1.52;;;1.42;;
29002;SDS011;16102;57.138;-2.118;2023-03-13T03:48:24;0.88;;;0.88;;
29002;SDS011;16102;57.138;-2.118;2023-03-13T03:50:51;1.30;;;1.20;;
29002;SDS011;16102;57.138;-2.118;2023-03-13T03:53:18;1.15;;;1.05;;
29002;SDS011;16102;57.138;-2.118;2023-03-13T03:55:45;0.95;;;0.90;;
29002;SDS011;16102;57.138;-2.118;2023-03-13T03:58:12;1.13;;;1.00;;
29002;SDS011;16102;57.138;-2.118;2023-03-13T04:00:42;1.20;;;0.88;;
29002;SDS011;16102;57.138;-2.118;2023-03-13T04:03:10;1.52;;;1.30;;
29002;SDS011;16102;57.138;-2.118;2023-03-13T04:05:38;1.95;;;1.42;;
29002;SDS011;16102;57.138;-2.118;2023-03-13T04:08:05;1.33;;;1.23;;
29002;SDS011;16102;57.138;-2.118;2023-03-13T04:10:33;1.77;;;1.60;;
29002;SDS011;16102;57.138;-2.118;2023-03-13T04:13:00;1.48;;;1.30;;
29002;SDS011;16102;57.138;-2.118;2023-03-13T04:15:27;1.85;;;1.45;;
29002;SDS011;16102;57.138;-2.118;2023-03-13T04:17:54;1.10;;;1.00;;
29002;SDS011;16102;57.138;-2.118;2023-03-13T04:20:21;1.45;;;1.02;;
29002;SDS011;16102;57.138;-2.118;2023-03-13T04:22:48;1.23;;;1.10;;
29002;SDS011;16102;57.138;-2.118;2023-03-13T04:25:15;2.03;;;1.67;;
29002;SDS011;16102;57.138;-2.118;2023-03-13T04:27:42;1.58;;;1.45;;
29002;SDS011;16102;57.138;-2.118;2023-03-13T04:30:10;3.10;;;2.35;;
29002;SDS011;16102;57.138;-2.118;2023-03-13T04:32:37;1.77;;;1.50;;
29002;SDS011;16102;57.138;-2.118;2023-03-13T04:35:04;1.65;;;1.38;;
29002;SDS011;16102;57.138;-2.118;2023-03-13T04:37:32;1.77;;;1.40;;
29002;SDS011;16102;57.138;-2.118;2023-03-13T04:39:59;2.20;;;1.77;;
29002;SDS011;16102;57.138;-2.118;2023-03-13T04:42:26;1.95;;;1.70;;
29002;SDS011;16102;57.138;-2.118;2023-03-13T04:44:53;5.68;;;2.05;;
29002;SDS011;16102;57.138;-2.118;2023-03-13T04:47:21;4.40;;;2.05;;
29002;SDS011;16102;57.138;-2.118;2023-03-13T04:49:48;1.73;;;1.60;;
29002;SDS011;16102;57.138;-2.118;2023-03-13T04:52:15;2.83;;;1.10;;
29002;SDS011;16102;57.138;-2.118;2023-03-13T04:54:42;1.27;;;1.08;;
29002;SDS011;16102;57.138;-2.118;2023-03-13T04:57:09;1.13;;;1.02;;
29002;SDS011;16102;57.138;-2.118;2023-03-13T04:59:36;1.75;;;1.48;;
29002;SDS011;16102;57.138;-2.118;2023-03-13T05:02:03;3.22;;;1.50;;
29002;SDS011;16102;57.138;-2.118;2023-03-13T05:04:30;1.10;;;0.90;;
29002;SDS011;16102;57.138;-2.118;2023-03-13T05:06:57;1.30;;;1.20;;
29002;SDS011;16102;57.138;-2.118;2023-03-13T05:09:24;0.60;;;0.60;;
29002;SDS011;16102;57.138;-2.118;2023-03-13T05:11:51;0.80;;;0.70;;
29002;SDS011;16102;57.138;-2.118;2023-03-13T05:14:18;2.88;;;0.80;;
29002;SDS011;16102;57.138;-2.118;2023-03-13T05:16:45;0.73;;;0.70;;
29002;SDS011;16102;57.138;-2.118;2023-03-13T05:19:12;0.95;;;0.70;;
29002;SDS011;16102;57.138;-2.118;2023-03-13T05:21:39;0.65;;;0.65;;
29002;SDS011;16102;57.138;-2.118;2023-03-13T05:24:06;0.60;;;0.50;;
29002;SDS011;16102;57.138;-2.118;2023-03-13T05:26:33;1.33;;;1.10;;
29002;SDS011;16102;57.138;-2.118;2023-03-13T05:29:00;0.73;;;0.68;;
29002;SDS011;16102;57.138;-2.118;2023-03-13T05:31:27;0.77;;;0.60;;
29002;SDS011;16102;57.138;-2.118;2023-03-13T05:33:54;1.95;;;0.68;;
29002;SDS011;16102;57.138;-2.118;2023-03-13T05:36:21;4.85;;;0.75;;
29002;SDS011;16102;57.138;-2.118;2023-03-13T05:38:48;1.95;;;1.02;;
29002;SDS011;16102;57.138;-2.118;2023-03-13T05:41:15;0.68;;;0.60;;
29002;SDS011;16102;57.138;-2.118;2023-03-13T05:43:42;0.60;;;0.57;;
29002;SDS011;16102;57.138;-2.118;2023-03-13T05:46:09;1.13;;;0.73;;
29002;SDS011;16102;57.138;-2.118;2023-03-13T05:48:36;0.50;;;0.50;;
29002;SDS011;16102;57.138;-2.118;2023-03-13T05:51:03;0.75;;;0.40;;
29002;SDS011;16102;57.138;-2.118;2023-03-13T05:53:30;2.90;;;0.47;;
29002;SDS011;16102;57.138;-2.118;2023-03-13T05:55:57;0.80;;;0.77;;
29002;SDS011;16102;57.138;-2.118;2023-03-13T05:58:25;0.50;;;0.40;;
29002;SDS011;16102;57.138;-2.118;2023-03-13T06:00:51;0.75;;;0.75;;
29002;SDS011;16102;57.138;-2.118;2023-03-13T06:03:18;0.43;;;0.40;;
29002;SDS011;16102;57.138;-2.118;2023-03-13T06:05:46;0.40;;;0.40;;
29002;SDS011;16102;57.138;-2.118;2023-03-13T06:08:13;0.70;;;0.60;;
29002;SDS011;16102;57.138;-2.118;2023-03-13T06:10:40;0.30;;;0.30;;
29002;SDS011;16102;57.138;-2.118;2023-03-13T06:13:07;1.42;;;0.50;;
29002;SDS011;16102;57.138;-2.118;2023-03-13T06:15:54;0.20;;;0.20;;
29002;SDS011;16102;57.138;-2.118;2023-03-13T06:18:23;0.22;;;0.22;;
29002;SDS011;16102;57.138;-2.118;2023-03-13T06:20:54;0.30;;;0.30;;
29002;SDS011;16102;57.138;-2.118;2023-03-13T06:23:23;0.45;;;0.40;;
29002;SDS011;16102;57.138;-2.118;2023-03-13T06:25:50;0.55;;;0.55;;
29002;SDS011;16102;57.138;-2.118;2023-03-13T06:28:17;2.25;;;0.63;;
29002;SDS011;16102;57.138;-2.118;2023-03-13T06:30:45;3.40;;;0.82;;
29002;SDS011;16102;57.138;-2.118;2023-03-13T06:33:12;0.73;;;0.68;;
29002;SDS011;16102;57.138;-2.118;2023-03-13T06:35:39;0.73;;;0.47;;
29002;SDS011;16102;57.138;-2.118;2023-03-13T06:38:21;0.70;;;0.65;;
29002;SDS011;16102;57.138;-2.118;2023-03-13T06:40:49;0.65;;;0.43;;
29002;SDS011;16102;57.138;-2.118;2023-03-13T06:43:16;1.17;;;0.52;;
29002;SDS011;16102;57.138;-2.118;2023-03-13T06:45:43;0.40;;;0.40;;
29002;SDS011;16102;57.138;-2.118;2023-03-13T06:48:10;0.70;;;0.40;;
29002;SDS011;16102;57.138;-2.118;2023-03-13T06:50:37;0.35;;;0.35;;
29002;SDS011;16102;57.138;-2.118;2023-03-13T06:53:05;1.02;;;0.40;;
29002;SDS011;16102;57.138;-2.118;2023-03-13T06:55:32;0.77;;;0.60;;
29002;SDS011;16102;57.138;-2.118;2023-03-13T06:57:59;0.40;;;0.40;;
29002;SDS011;16102;57.138;-2.118;2023-03-13T07:00:26;0.82;;;0.45;;
29002;SDS011;16102;57.138;-2.118;2023-03-13T07:02:53;0.98;;;0.70;;
29002;SDS011;16102;57.138;-2.118;2023-03-13T07:05:20;0.68;;;0.63;;
29002;SDS011;16102;57.138;-2.118;2023-03-13T07:07:47;0.70;;;0.70;;
29002;SDS011;16102;57.138;-2.118;2023-03-13T07:10:15;0.63;;;0.60;;
29002;SDS011;16102;57.138;-2.118;2023-03-13T07:12:42;0.90;;;0.75;;
29002;SDS011;16102;57.138;-2.118;2023-03-13T07:15:09;2.40;;;0.55;;
29002;SDS011;16102;57.138;-2.118;2023-03-13T07:17:37;0.40;;;0.32;;
29002;SDS011;16102;57.138;-2.118;2023-03-13T07:20:04;0.30;;;0.30;;
29002;SDS011;16102;57.138;-2.118;2023-03-13T07:22:35;0.98;;;0.30;;
29002;SDS011;16102;57.138;-2.118;2023-03-13T07:25:03;4.18;;;0.80;;
29002;SDS011;16102;57.138;-2.118;2023-03-13T07:27:31;0.22;;;0.20;;
29002;SDS011;16102;57.138;-2.118;2023-03-13T07:29:58;0.45;;;0.38;;
29002;SDS011;16102;57.138;-2.118;2023-03-13T07:32:29;0.30;;;0.30;;
29002;SDS011;16102;57.138;-2.118;2023-03-13T07:34:58;1.13;;;0.38;;
29002;SDS011;16102;57.138;-2.118;2023-03-13T07:37:25;1.38;;;0.40;;
29002;SDS011;16102;57.138;-2.118;2023-03-13T07:39:52;0.80;;;0.45;;
29002;SDS011;16102;57.138;-2.118;2023-03-13T07:42:19;0.80;;;0.43;;
29002;SDS011;16102;57.138;-2.118;2023-03-13T07:44:46;0.90;;;0.50;;
29002;SDS011;16102;57.138;-2.118;2023-03-13T07:47:13;0.68;;;0.30;;
29002;SDS011;16102;57.138;-2.118;2023-03-13T07:49:40;0.55;;;0.55;;
29002;SDS011;16102;57.138;-2.118;2023-03-13T07:52:09;0.30;;;0.30;;
29002;SDS011;16102;57.138;-2.118;2023-03-13T07:54:36;1.35;;;0.60;;
29002;SDS011;16102;57.138;-2.118;2023-03-13T07:57:04;0.60;;;0.60;;
29002;SDS011;16102;57.138;-2.118;2023-03-13T07:59:31;0.75;;;0.70;;
29002;SDS011;16102;57.138;-2.118;2023-03-13T08:01:58;1.13;;;0.75;;
29002;SDS011;16102;57.138;-2.118;2023-03-13T08:04:25;1.10;;;1.00;;
29002;SDS011;16102;57.138;-2.118;2023-03-13T08:06:52;1.77;;;1.10;;
29002;SDS011;16102;57.138;-2.118;2023-03-13T08:09:20;0.90;;;0.80;;
29002;SDS011;16102;57.138;-2.118;2023-03-13T08:11:46;2.80;;;1.05;;
29002;SDS011;16102;57.138;-2.118;2023-03-13T08:14:14;1.35;;;0.80;;
29002;SDS011;16102;57.138;-2.118;2023-03-13T08:16:41;1.63;;;1.25;;
29002;SDS011;16102;57.138;-2.118;2023-03-13T08:19:08;1.48;;;0.90;;
29002;SDS011;16102;57.138;-2.118;2023-03-13T08:21:36;1.00;;;0.60;;
29002;SDS011;16102;57.138;-2.118;2023-03-13T08:24:07;1.90;;;0.85;;
29002;SDS011;16102;57.138;-2.118;2023-03-13T08:26:35;1.10;;;1.00;;
29002;SDS011;16102;57.138;-2.118;2023-03-13T08:29:05;2.63;;;1.30;;
29002;SDS011;16102;57.138;-2.118;2023-03-13T08:31:40;1.05;;;0.75;;
29002;SDS011;16102;57.138;-2.118;2023-03-13T08:34:16;5.40;;;0.70;;
29002;SDS011;16102;57.138;-2.118;2023-03-13T08:36:43;3.13;;;0.50;;
29002;SDS011;16102;57.138;-2.118;2023-03-13T08:39:14;3.45;;;0.65;;
29002;SDS011;16102;57.138;-2.118;2023-03-13T08:41:42;7.85;;;0.60;;
29002;SDS011;16102;57.138;-2.118;2023-03-13T08:44:11;0.82;;;0.52;;
29002;SDS011;16102;57.138;-2.118;2023-03-13T08:46:39;5.10;;;0.70;;
29002;SDS011;16102;57.138;-2.118;2023-03-13T08:49:07;2.90;;;0.80;;
29002;SDS011;16102;57.138;-2.118;2023-03-13T08:51:34;2.08;;;0.30;;
29002;SDS011;16102;57.138;-2.118;2023-03-13T08:54:02;2.67;;;0.43;;
29002;SDS011;16102;57.138;-2.118;2023-03-13T08:56:30;3.65;;;0.52;;
29002;SDS011;16102;57.138;-2.118;2023-03-13T08:58:59;6.50;;;1.05;;
29002;SDS011;16102;57.138;-2.118;2023-03-13T09:01:28;1.92;;;0.60;;
29002;SDS011;16102;57.138;-2.118;2023-03-13T09:03:56;2.85;;;0.70;;
29002;SDS011;16102;57.138;-2.118;2023-03-13T09:06:26;6.68;;;1.00;;
29002;SDS011;16102;57.138;-2.118;2023-03-13T09:08:55;3.20;;;0.45;;
29002;SDS011;16102;57.138;-2.118;2023-03-13T09:11:23;2.50;;;0.60;;
29002;SDS011;16102;57.138;-2.118;2023-03-13T09:13:50;6.10;;;0.82;;
29002;SDS011;16102;57.138;-2.118;2023-03-13T09:16:21;4.65;;;0.85;;
29002;SDS011;16102;57.138;-2.118;2023-03-13T09:18:49;5.88;;;1.40;;
29002;SDS011;16102;57.138;-2.118;2023-03-13T09:21:22;6.10;;;2.03;;
29002;SDS011;16102;57.138;-2.118;2023-03-13T09:23:51;10.57;;;2.85;;
29002;SDS011;16102;57.138;-2.118;2023-03-13T09:26:19;6.50;;;1.50;;
29002;SDS011;16102;57.138;-2.118;2023-03-13T09:28:49;5.20;;;1.30;;
29002;SDS011;16102;57.138;-2.118;2023-03-13T09:31:20;3.60;;;0.80;;
29002;SDS011;16102;57.138;-2.118;2023-03-13T09:33:52;2.42;;;1.05;;
29002;SDS011;16102;57.138;-2.118;2023-03-13T09:36:20;4.00;;;0.95;;
29002;SDS011;16102;57.138;-2.118;2023-03-13T09:38:50;4.15;;;0.50;;
29002;SDS011;16102;57.138;-2.118;2023-03-13T09:41:26;5.22;;;0.85;;
29002;SDS011;16102;57.138;-2.118;2023-03-13T09:44:16;8.32;;;0.70;;
29002;SDS011;16102;57.138;-2.118;2023-03-13T09:49:44;6.95;;;0.77;;
29002;SDS011;16102;57.138;-2.118;2023-03-13T09:52:23;5.85;;;0.88;;
29002;SDS011;16102;57.138;-2.118;2023-03-13T09:55:26;2.67;;;0.40;;
29002;SDS011;16102;57.138;-2.118;2023-03-13T09:57:53;0.63;;;0.28;;
29002;SDS011;16102;57.138;-2.118;2023-03-13T10:00:37;2.88;;;0.32;;
29002;SDS011;16102;57.138;-2.118;2023-03-13T10:03:13;2.40;;;0.30;;
29002;SDS011;16102;57.138;-2.118;2023-03-13T10:05:50;3.78;;;0.50;;
29002;SDS011;16102;57.138;-2.118;2023-03-13T10:08:24;1.33;;;0.45;;
29002;SDS011;16102;57.138;-2.118;2023-03-13T10:10:56;4.82;;;0.77;;
29002;SDS011;16102;57.138;-2.118;2023-03-13T10:16:20;3.90;;;0.47;;
29002;SDS011;16102;57.138;-2.118;2023-03-13T10:18:53;1.40;;;0.20;;
29002;SDS011;16102;57.138;-2.118;2023-03-13T10:21:25;2.37;;;0.50;;
29002;SDS011;16102;57.138;-2.118;2023-03-13T10:24:11;5.60;;;0.30;;
29002;SDS011;16102;57.138;-2.118;2023-03-13T10:26:40;1.25;;;0.30;;
29002;SDS011;16102;57.138;-2.118;2023-03-13T10:29:23;2.40;;;0.20;;
29002;SDS011;16102;57.138;-2.118;2023-03-13T10:32:02;2.58;;;0.40;;
29002;SDS011;16102;57.138;-2.118;2023-03-13T10:37:27;2.90;;;0.40;;
29002;SDS011;16102;57.138;-2.118;2023-03-13T10:40:12;2.58;;;0.40;;
29002;SDS011;16102;57.138;-2.118;2023-03-13T10:42:45;1.00;;;0.28;;
29002;SDS011;16102;57.138;-2.118;2023-03-13T10:45:14;2.47;;;0.68;;
29002;SDS011;16102;57.138;-2.118;2023-03-13T10:47:43;2.25;;;0.30;;
29002;SDS011;16102;57.138;-2.118;2023-03-13T10:50:21;3.28;;;0.22;;
29002;SDS011;16102;57.138;-2.118;2023-03-13T10:52:50;0.75;;;0.22;;
29002;SDS011;16102;57.138;-2.118;2023-03-13T10:55:18;2.60;;;0.30;;
29002;SDS011;16102;57.138;-2.118;2023-03-13T10:57:51;0.85;;;0.20;;
29002;SDS011;16102;57.138;-2.118;2023-03-13T11:02:56;0.47;;;0.20;;
29002;SDS011;16102;57.138;-2.118;2023-03-13T11:05:30;1.15;;;0.55;;
29002;SDS011;16102;57.138;-2.118;2023-03-13T11:10:54;0.57;;;0.20;;
29002;SDS011;16102;57.138;-2.118;2023-03-13T11:13:41;1.17;;;0.30;;
29002;SDS011;16102;57.138;-2.118;2023-03-13T11:16:12;1.00;;;0.20;;
29002;SDS011;16102;57.138;-2.118;2023-03-13T11:18:57;3.28;;;0.30;;
29002;SDS011;16102;57.138;-2.118;2023-03-13T11:24:59;3.17;;;0.50;;
29002;SDS011;16102;57.138;-2.118;2023-03-13T11:30:40;0.77;;;0.20;;
29002;SDS011;16102;57.138;-2.118;2023-03-13T11:38:27;3.45;;;0.50;;
29002;SDS011;16102;57.138;-2.118;2023-03-13T11:46:39;2.22;;;0.75;;
29002;SDS011;16102;57.138;-2.118;2023-03-13T11:49:12;6.60;;;0.98;;
29002;SDS011;16102;57.138;-2.118;2023-03-13T11:51:56;2.50;;;0.75;;
29002;SDS011;16102;57.138;-2.118;2023-03-13T11:54:56;5.90;;;0.77;;
29002;SDS011;16102;57.138;-2.118;2023-03-13T11:57:29;4.30;;;0.90;;
29002;SDS011;16102;57.138;-2.118;2023-03-13T12:05:46;8.23;;;1.33;;
29002;SDS011;16102;57.138;-2.118;2023-03-13T12:08:35;8.23;;;1.17;;
29002;SDS011;16102;57.138;-2.118;2023-03-13T12:13:39;5.40;;;1.25;;
29002;SDS011;16102;57.138;-2.118;2023-03-13T12:16:14;5.13;;;1.10;;
29002;SDS011;16102;57.138;-2.118;2023-03-13T12:18:47;3.38;;;1.02;;
29002;SDS011;16102;57.138;-2.118;2023-03-13T12:21:23;4.65;;;1.00;;
29002;SDS011;16102;57.138;-2.118;2023-03-13T12:28:59;10.55;;;0.95;;
29002;SDS011;16102;57.138;-2.118;2023-03-13T12:34:15;4.10;;;1.17;;
29002;SDS011;16102;57.138;-2.118;2023-03-13T12:40:00;6.03;;;1.10;;
29002;SDS011;16102;57.138;-2.118;2023-03-13T12:45:27;7.32;;;0.98;;
29002;SDS011;16102;57.138;-2.118;2023-03-13T12:48:13;4.95;;;0.80;;
29002;SDS011;16102;57.138;-2.118;2023-03-13T12:59:22;5.93;;;1.40;;
29002;SDS011;16102;57.138;-2.118;2023-03-13T13:01:55;12.32;;;1.90;;
29002;SDS011;16102;57.138;-2.118;2023-03-13T13:04:25;5.07;;;1.30;;
29002;SDS011;16102;57.138;-2.118;2023-03-13T13:09:30;7.88;;;2.28;;
29002;SDS011;16102;57.138;-2.118;2023-03-13T13:12:21;8.00;;;1.65;;
29002;SDS011;16102;57.138;-2.118;2023-03-13T13:25:52;11.45;;;2.83;;
29002;SDS011;16102;57.138;-2.118;2023-03-13T13:28:25;8.00;;;2.35;;
29002;SDS011;16102;57.138;-2.118;2023-03-13T13:31:00;17.60;;;2.70;;
29002;SDS011;16102;57.138;-2.118;2023-03-13T13:38:38;8.63;;;2.00;;
29002;SDS011;16102;57.138;-2.118;2023-03-13T13:43:38;11.30;;;2.08;;
29002;SDS011;16102;57.138;-2.118;2023-03-13T13:48:39;8.98;;;2.15;;
29002;SDS011;16102;57.138;-2.118;2023-03-13T13:56:32;9.18;;;1.75;;
29002;SDS011;16102;57.138;-2.118;2023-03-13T13:59:22;9.93;;;1.88;;
29002;SDS011;16102;57.138;-2.118;2023-03-13T14:04:45;9.27;;;2.10;;
29002;SDS011;16102;57.138;-2.118;2023-03-13T14:08:02;14.13;;;3.00;;
29002;SDS011;16102;57.138;-2.118;2023-03-13T14:10:05;9.48;;;2.30;;
29002;SDS011;16102;57.138;-2.118;2023-03-13T14:12:36;19.77;;;4.30;;
29002;SDS011;16102;57.138;-2.118;2023-03-13T14:15:23;15.75;;;2.80;;
29002;SDS011;16102;57.138;-2.118;2023-03-13T14:17:52;15.68;;;3.30;;
29002;SDS011;16102;57.138;-2.118;2023-03-13T14:22:55;10.63;;;2.35;;
29002;SDS011;16102;57.138;-2.118;2023-03-13T14:25:45;18.13;;;4.43;;
29002;SDS011;16102;57.138;-2.118;2023-03-13T14:28:17;11.35;;;2.78;;
29002;SDS011;16102;57.138;-2.118;2023-03-13T14:30:47;19.35;;;3.42;;
29002;SDS011;16102;57.138;-2.118;2023-03-13T14:33:16;19.20;;;3.50;;
29002;SDS011;16102;57.138;-2.118;2023-03-13T14:35:43;12.77;;;2.97;;
29002;SDS011;16102;57.138;-2.118;2023-03-13T14:38:15;17.17;;;3.38;;
29002;SDS011;16102;57.138;-2.118;2023-03-13T14:40:44;18.02;;;3.35;;
29002;SDS011;16102;57.138;-2.118;2023-03-13T14:43:45;13.73;;;2.78;;
29002;SDS011;16102;57.138;-2.118;2023-03-13T14:46:11;17.83;;;3.30;;
29002;SDS011;16102;57.138;-2.118;2023-03-13T14:48:45;15.57;;;3.72;;
29002;SDS011;16102;57.138;-2.118;2023-03-13T14:51:16;11.18;;;2.63;;
29002;SDS011;16102;57.138;-2.118;2023-03-13T14:53:54;16.75;;;2.97;;
29002;SDS011;16102;57.138;-2.118;2023-03-13T14:56:29;12.38;;;3.58;;
29002;SDS011;16102;57.138;-2.118;2023-03-13T15:01:44;12.77;;;3.25;;
29002;SDS011;16102;57.138;-2.118;2023-03-13T15:04:12;12.15;;;2.85;;
29002;SDS011;16102;57.138;-2.118;2023-03-13T15:06:39;10.07;;;2.33;;
29002;SDS011;16102;57.138;-2.118;2023-03-13T15:09:13;11.23;;;2.50;;
29002;SDS011;16102;57.138;-2.118;2023-03-13T15:11:41;15.82;;;2.83;;
29002;SDS011;16102;57.138;-2.118;2023-03-13T15:14:33;13.98;;;2.45;;
29002;SDS011;16102;57.138;-2.118;2023-03-13T15:17:15;15.82;;;2.95;;
29002;SDS011;16102;57.138;-2.118;2023-03-13T15:19:50;12.38;;;2.63;;
29002;SDS011;16102;57.138;-2.118;2023-03-13T15:22:23;17.00;;;3.22;;
29002;SDS011;16102;57.138;-2.118;2023-03-13T15:24:53;12.27;;;2.90;;
29002;SDS011;16102;57.138;-2.118;2023-03-13T15:27:31;20.40;;;3.72;;
29002;SDS011;16102;57.138;-2.118;2023-03-13T15:29:58;16.77;;;2.78;;
29002;SDS011;16102;57.138;-2.118;2023-03-13T15:32:28;9.18;;;1.63;;
29002;SDS011;16102;57.138;-2.118;2023-03-13T15:34:58;20.15;;;3.67;;
29002;SDS011;16102;57.138;-2.118;2023-03-13T15:37:28;14.98;;;2.88;;
29002;SDS011;16102;57.138;-2.118;2023-03-13T15:39:56;18.67;;;4.20;;
29002;SDS011;16102;57.138;-2.118;2023-03-13T15:42:23;17.25;;;3.83;;
29002;SDS011;16102;57.138;-2.118;2023-03-13T15:44:50;24.80;;;3.65;;
29002;SDS011;16102;57.138;-2.118;2023-03-13T15:47:18;24.67;;;3.75;;
29002;SDS011;16102;57.138;-2.118;2023-03-13T15:49:47;24.20;;;4.30;;
29002;SDS011;16102;57.138;-2.118;2023-03-13T15:52:15;20.92;;;3.90;;
29002;SDS011;16102;57.138;-2.118;2023-03-13T15:54:44;24.35;;;4.95;;
29002;SDS011;16102;57.138;-2.118;2023-03-13T15:57:15;21.95;;;4.85;;
29002;SDS011;16102;57.138;-2.118;2023-03-13T15:59:45;19.90;;;4.70;;
29002;SDS011;16102;57.138;-2.118;2023-03-13T16:02:16;22.58;;;4.72;;
29002;SDS011;16102;57.138;-2.118;2023-03-13T16:04:45;17.50;;;3.35;;
29002;SDS011;16102;57.138;-2.118;2023-03-13T16:07:13;21.23;;;4.80;;
29002;SDS011;16102;57.138;-2.118;2023-03-13T16:09:42;19.67;;;3.40;;
29002;SDS011;16102;57.138;-2.118;2023-03-13T16:12:10;8.40;;;2.55;;
29002;SDS011;16102;57.138;-2.118;2023-03-13T16:14:38;16.95;;;2.60;;
29002;SDS011;16102;57.138;-2.118;2023-03-13T16:17:12;14.88;;;3.75;;
29002;SDS011;16102;57.138;-2.118;2023-03-13T16:19:44;14.18;;;3.63;;
29002;SDS011;16102;57.138;-2.118;2023-03-13T16:22:12;14.68;;;3.30;;
29002;SDS011;16102;57.138;-2.118;2023-03-13T16:24:39;14.45;;;2.50;;
29002;SDS011;16102;57.138;-2.118;2023-03-13T16:27:12;18.10;;;2.45;;
29002;SDS011;16102;57.138;-2.118;2023-03-13T16:29:41;14.10;;;2.78;;
29002;SDS011;16102;57.138;-2.118;2023-03-13T16:32:12;13.13;;;2.47;;
29002;SDS011;16102;57.138;-2.118;2023-03-13T16:34:41;16.20;;;2.60;;
29002;SDS011;16102;57.138;-2.118;2023-03-13T16:37:12;13.48;;;2.53;;
29002;SDS011;16102;57.138;-2.118;2023-03-13T16:39:42;59.17;;;20.90;;
29002;SDS011;16102;57.138;-2.118;2023-03-13T16:42:10;16.02;;;3.95;;
29002;SDS011;16102;57.138;-2.118;2023-03-13T16:44:38;23.42;;;3.63;;